sensor_id;sensor_type;location;lat;lon;timestamp;pressure;altitude;pressure_sealevel;temperature;humidity
41800;BME280;27468;47.460;19.034;2023-04-09T00:00:32;101023.69;;;5.53;85.91
41800;BME280;27468;47.460;19.034;2023-04-09T00:02:57;101076.25;;;5.78;86.04
41800;BME280;27468;47.460;19.034;2023-04-09T00:05:23;101081.56;;;5.84;86.24
41800;BME280;27468;47.460;19.034;2023-04-09T00:07:48;101034.22;;;5.59;85.90
41800;BME280;27468;47.460;19.034;2023-04-09T00:10:14;101064.00;;;5.71;85.91
41800;BME280;27468;47.460;19.034;2023-04-09T00:12:39;100943.06;;;5.11;86.04
41800;BME280;27468;47.460;19.034;2023-04-09T00:15:05;101050.00;;;5.67;85.94
41800;BME280;27468;47.460;19.034;2023-04-09T00:17:31;101036.78;;;5.53;86.50
41800;BME280;27468;47.460;19.034;2023-04-09T00:19:56;101048.28;;;5.69;86.65
41800;BME280;27468;47.460;19.034;2023-04-09T00:22:21;101058.75;;;5.69;86.69
41800;BME280;27468;47.460;19.034;2023-04-09T00:24:47;100986.81;;;5.30;86.62
41800;BME280;27468;47.460;19.034;2023-04-09T00:27:12;100985.09;;;5.31;86.78
41800;BME280;27468;47.460;19.034;2023-04-09T00:29:38;101018.44;;;5.52;86.41
41800;BME280;27468;47.460;19.034;2023-04-09T00:32:03;101020.19;;;5.51;86.60
41800;BME280;27468;47.460;19.034;2023-04-09T00:34:29;101028.97;;;5.56;86.49
41800;BME280;27468;47.460;19.034;2023-04-09T00:36:54;101039.41;;;5.55;86.69
41800;BME280;27468;47.460;19.034;2023-04-09T00:39:20;100998.22;;;5.36;86.50
41800;BME280;27468;47.460;19.034;2023-04-09T00:41:45;101081.44;;;5.72;86.74
41800;BME280;27468;47.460;19.034;2023-04-09T00:44:11;101020.88;;;5.37;86.93
41800;BME280;27468;47.460;19.034;2023-04-09T00:46:36;101007.88;;;5.41;86.63
41800;BME280;27468;47.460;19.034;2023-04-09T00:49:02;101017.47;;;5.44;86.42
41800;BME280;27468;47.460;19.034;2023-04-09T00:51:27;101032.41;;;5.52;86.38
41800;BME280;27468;47.460;19.034;2023-04-09T00:53:54;101030.66;;;5.53;86.35
41800;BME280;27468;47.460;19.034;2023-04-09T00:56:20;101047.38;;;5.67;86.23
41800;BME280;27468;47.460;19.034;2023-04-09T00:58:46;100995.50;;;5.28;86.11
41800;BME280;27468;47.460;19.034;2023-04-09T01:01:12;101014.00;;;5.45;86.04
41800;BME280;27468;47.460;19.034;2023-04-09T01:03:37;101070.97;;;5.72;86.14
41800;BME280;27468;47.460;19.034;2023-04-09T01:06:11;101064.06;;;5.77;86.45
41800;BME280;27468;47.460;19.034;2023-04-09T01:08:40;101053.47;;;5.66;86.37
41800;BME280;27468;47.460;19.034;2023-04-09T01:16:23;100987.59;;;5.22;85.84
41800;BME280;27468;47.460;19.034;2023-04-09T01:19:00;101068.25;;;5.62;85.93
41800;BME280;27468;47.460;19.034;2023-04-09T01:21:31;101046.06;;;5.30;85.94
41800;BME280;27468;47.460;19.034;2023-04-09T01:29:10;101003.06;;;5.02;85.91
41800;BME280;27468;47.460;19.034;2023-04-09T01:31:37;101058.16;;;5.22;86.41
41800;BME280;27468;47.460;19.034;2023-04-09T01:34:04;100942.41;;;4.58;86.38
41800;BME280;27468;47.460;19.034;2023-04-09T01:36:30;101010.81;;;4.96;86.01
41800;BME280;27468;47.460;19.034;2023-04-09T01:38:59;101044.03;;;5.05;86.74
41800;BME280;27468;47.460;19.034;2023-04-09T01:41:25;100935.34;;;4.49;86.57
41800;BME280;27468;47.460;19.034;2023-04-09T01:43:52;101002.81;;;4.84;86.05
41800;BME280;27468;47.460;19.034;2023-04-09T01:46:19;101031.78;;;5.01;86.02
41800;BME280;27468;47.460;19.034;2023-04-09T01:48:45;101022.97;;;4.94;86.31
41800;BME280;27468;47.460;19.034;2023-04-09T01:51:12;101042.31;;;5.07;85.97
41800;BME280;27468;47.460;19.034;2023-04-09T01:53:39;101067.78;;;5.23;86.69
41800;BME280;27468;47.460;19.034;2023-04-09T01:56:05;101052.91;;;5.16;86.56
41800;BME280;27468;47.460;19.034;2023-04-09T01:58:31;101006.38;;;4.90;86.37
41800;BME280;27468;47.460;19.034;2023-04-09T02:01:37;101070.44;;;5.26;86.40
41800;BME280;27468;47.460;19.034;2023-04-09T02:04:09;101027.34;;;4.95;86.43
41800;BME280;27468;47.460;19.034;2023-04-09T02:06:43;101065.94;;;5.13;86.29
41800;BME280;27468;47.460;19.034;2023-04-09T02:09:12;101021.06;;;4.82;86.18
41800;BME280;27468;47.460;19.034;2023-04-09T02:11:41;101070.34;;;5.17;86.39
41800;BME280;27468;47.460;19.034;2023-04-09T02:14:08;101025.44;;;4.82;86.19
41800;BME280;27468;47.460;19.034;2023-04-09T02:16:36;101068.47;;;5.08;86.34
41800;BME280;27468;47.460;19.034;2023-04-09T02:19:02;101029.75;;;4.80;86.37
41800;BME280;27468;47.460;19.034;2023-04-09T02:21:28;101015.59;;;4.64;86.06
41800;BME280;27468;47.460;19.034;2023-04-09T02:23:54;100971.69;;;4.37;86.19
41800;BME280;27468;47.460;19.034;2023-04-09T02:26:20;101013.81;;;4.58;86.42
41800;BME280;27468;47.460;19.034;2023-04-09T02:28:46;101007.69;;;4.58;86.65
41800;BME280;27468;47.460;19.034;2023-04-09T02:31:12;101062.19;;;4.94;86.62
41800;BME280;27468;47.460;19.034;2023-04-09T02:33:37;100978.88;;;4.52;86.78
41800;BME280;27468;47.460;19.034;2023-04-09T02:36:04;101059.59;;;4.97;86.96
41800;BME280;27468;47.460;19.034;2023-04-09T02:38:30;101054.34;;;4.94;87.01
41800;BME280;27468;47.460;19.034;2023-04-09T02:40:55;101026.25;;;4.79;87.31
41800;BME280;27468;47.460;19.034;2023-04-09T02:43:21;101032.41;;;4.83;87.56
41800;BME280;27468;47.460;19.034;2023-04-09T02:45:46;100955.38;;;4.52;87.46
41800;BME280;27468;47.460;19.034;2023-04-09T02:48:12;101036.78;;;4.85;87.62
41800;BME280;27468;47.460;19.034;2023-04-09T02:50:37;100963.06;;;4.41;88.14
41800;BME280;27468;47.460;19.034;2023-04-09T02:53:02;101017.66;;;4.86;88.02
41800;BME280;27468;47.460;19.034;2023-04-09T02:55:28;101040.50;;;5.01;88.10
41800;BME280;27468;47.460;19.034;2023-04-09T02:57:53;101016.72;;;4.81;88.05
41800;BME280;27468;47.460;19.034;2023-04-09T03:00:19;100956.31;;;4.57;87.97
41800;BME280;27468;47.460;19.034;2023-04-09T03:02:44;100944.91;;;4.49;87.67
41800;BME280;27468;47.460;19.034;2023-04-09T03:05:10;101053.63;;;5.06;87.71
41800;BME280;27468;47.460;19.034;2023-04-09T03:07:35;100943.94;;;4.42;87.64
41800;BME280;27468;47.460;19.034;2023-04-09T03:10:00;100995.56;;;4.64;87.61
41800;BME280;27468;47.460;19.034;2023-04-09T03:12:26;101062.25;;;4.98;87.49
41800;BME280;27468;47.460;19.034;2023-04-09T03:14:51;101019.25;;;4.77;87.06
41800;BME280;27468;47.460;19.034;2023-04-09T03:17:17;101056.94;;;4.92;86.98
41800;BME280;27468;47.460;19.034;2023-04-09T03:19:42;100951.53;;;4.27;86.67
41800;BME280;27468;47.460;19.034;2023-04-09T03:22:08;100903.09;;;3.87;86.60
41800;BME280;27468;47.460;19.034;2023-04-09T03:24:33;101048.81;;;4.73;86.44
41800;BME280;27468;47.460;19.034;2023-04-09T03:26:58;101018.84;;;4.46;86.54
41800;BME280;27468;47.460;19.034;2023-04-09T03:29:25;101031.13;;;4.53;86.48
41800;BME280;27468;47.460;19.034;2023-04-09T03:31:50;101018.66;;;4.34;86.13
41800;BME280;27468;47.460;19.034;2023-04-09T03:34:16;101067.72;;;4.55;86.31
41800;BME280;27468;47.460;19.034;2023-04-09T03:36:41;101021.09;;;4.25;86.78
41800;BME280;27468;47.460;19.034;2023-04-09T03:39:06;101015.88;;;4.25;86.85
41800;BME280;27468;47.460;19.034;2023-04-09T03:41:32;101060.81;;;4.58;86.93
41800;BME280;27468;47.460;19.034;2023-04-09T03:43:57;101028.16;;;4.30;87.39
41800;BME280;27468;47.460;19.034;2023-04-09T03:46:23;100961.47;;;3.93;87.40
41800;BME280;27468;47.460;19.034;2023-04-09T03:48:50;101028.31;;;4.41;87.57
41800;BME280;27468;47.460;19.034;2023-04-09T03:51:16;100999.41;;;4.29;87.46
41800;BME280;27468;47.460;19.034;2023-04-09T03:53:43;101008.19;;;4.34;87.97
41800;BME280;27468;47.460;19.034;2023-04-09T03:56:09;100939.81;;;3.99;87.74
41800;BME280;27468;47.460;19.034;2023-04-09T03:58:35;101043.34;;;4.56;88.01
41800;BME280;27468;47.460;19.034;2023-04-09T04:01:01;101075.91;;;4.79;88.16
41800;BME280;27468;47.460;19.034;2023-04-09T04:03:26;100989.84;;;4.29;88.10
41800;BME280;27468;47.460;19.034;2023-04-09T04:05:52;101054.91;;;4.73;88.36
41800;BME280;27468;47.460;19.034;2023-04-09T04:08:18;101039.94;;;4.60;88.50
41800;BME280;27468;47.460;19.034;2023-04-09T04:10:43;101033.84;;;4.61;88.77
41800;BME280;27468;47.460;19.034;2023-04-09T04:13:09;101001.44;;;4.47;88.79
41800;BME280;27468;47.460;19.034;2023-04-09T04:15:41;100981.22;;;4.34;89.40
41800;BME280;27468;47.460;19.034;2023-04-09T04:18:07;100994.41;;;4.43;89.69
41800;BME280;27468;47.460;19.034;2023-04-09T04:20:33;101017.25;;;4.56;89.72
41800;BME280;27468;47.460;19.034;2023-04-09T04:22:58;101046.09;;;4.67;89.69
41800;BME280;27468;47.460;19.034;2023-04-09T04:25:24;101081.44;;;5.01;89.69
41800;BME280;27468;47.460;19.034;2023-04-09T04:27:50;101044.53;;;4.78;89.74
41800;BME280;27468;47.460;19.034;2023-04-09T04:30:15;100984.91;;;4.46;89.78
41800;BME280;27468;47.460;19.034;2023-04-09T04:32:40;101024.31;;;4.64;90.04
41800;BME280;27468;47.460;19.034;2023-04-09T04:35:06;101042.78;;;4.78;90.09
41800;BME280;27468;47.460;19.034;2023-04-09T04:37:32;101081.44;;;5.01;90.06
41800;BME280;27468;47.460;19.034;2023-04-09T04:40:00;101076.06;;;4.91;89.85
41800;BME280;27468;47.460;19.034;2023-04-09T04:42:25;101054.28;;;4.89;89.89
41800;BME280;27468;47.460;19.034;2023-04-09T04:44:51;101001.66;;;4.63;89.73
41800;BME280;27468;47.460;19.034;2023-04-09T04:47:16;100990.31;;;4.60;89.84
41800;BME280;27468;47.460;19.034;2023-04-09T04:49:43;100978.94;;;4.56;89.62
41800;BME280;27468;47.460;19.034;2023-04-09T04:52:08;101036.81;;;4.87;89.57
41800;BME280;27468;47.460;19.034;2023-04-09T04:54:35;101009.50;;;4.65;89.52
41800;BME280;27468;47.460;19.034;2023-04-09T04:57:00;100994.81;;;4.72;89.41
41800;BME280;27468;47.460;19.034;2023-04-09T04:59:26;101076.47;;;5.19;89.55
41800;BME280;27468;47.460;19.034;2023-04-09T05:01:51;101023.88;;;4.96;89.42
41800;BME280;27468;47.460;19.034;2023-04-09T05:04:16;101079.25;;;5.36;89.37
41800;BME280;27468;47.460;19.034;2023-04-09T05:06:42;101090.72;;;5.45;89.33
41800;BME280;27468;47.460;19.034;2023-04-09T05:09:07;101074.94;;;5.38;89.23
41800;BME280;27468;47.460;19.034;2023-04-09T05:11:33;100996.09;;;5.03;89.48
41800;BME280;27468;47.460;19.034;2023-04-09T05:13:58;101032.03;;;5.22;89.28
41800;BME280;27468;47.460;19.034;2023-04-09T05:16:23;101038.13;;;5.18;89.27
41800;BME280;27468;47.460;19.034;2023-04-09T05:18:49;101070.66;;;5.44;89.31
41800;BME280;27468;47.460;19.034;2023-04-09T05:21:15;101120.63;;;5.67;89.38
41800;BME280;27468;47.460;19.034;2023-04-09T05:23:40;101099.78;;;5.73;89.32
41800;BME280;27468;47.460;19.034;2023-04-09T05:26:06;101032.16;;;5.32;89.41
41800;BME280;27468;47.460;19.034;2023-04-09T05:28:32;101050.41;;;5.28;88.51
41800;BME280;27468;47.460;19.034;2023-04-09T05:30:57;101077.66;;;5.47;89.13
41800;BME280;27468;47.460;19.034;2023-04-09T05:33:23;101088.31;;;5.63;88.73
41800;BME280;27468;47.460;19.034;2023-04-09T05:35:48;101067.31;;;5.56;88.68
41800;BME280;27468;47.460;19.034;2023-04-09T05:38:13;101014.72;;;5.31;88.65
41800;BME280;27468;47.460;19.034;2023-04-09T05:40:39;101082.31;;;5.72;88.67
41800;BME280;27468;47.460;19.034;2023-04-09T05:43:06;101092.06;;;5.88;88.50
41800;BME280;27468;47.460;19.034;2023-04-09T05:45:31;101083.41;;;5.92;88.46
41800;BME280;27468;47.460;19.034;2023-04-09T05:47:57;101055.28;;;5.72;88.17
41800;BME280;27468;47.460;19.034;2023-04-09T05:50:22;101076.44;;;5.91;88.26
41800;BME280;27468;47.460;19.034;2023-04-09T05:52:48;101099.13;;;5.92;87.87
41800;BME280;27468;47.460;19.034;2023-04-09T05:55:13;101079.13;;;5.99;87.81
41800;BME280;27468;47.460;19.034;2023-04-09T05:57:38;101072.09;;;5.93;86.96
41800;BME280;27468;47.460;19.034;2023-04-09T06:00:05;101026.47;;;5.67;87.01
41800;BME280;27468;47.460;19.034;2023-04-09T06:02:30;101096.72;;;6.12;86.59
41800;BME280;27468;47.460;19.034;2023-04-09T06:04:55;101079.16;;;6.02;85.29
41800;BME280;27468;47.460;19.034;2023-04-09T06:07:21;101119.47;;;6.19;84.91
41800;BME280;27468;47.460;19.034;2023-04-09T06:09:47;101067.91;;;6.12;84.56
41800;BME280;27468;47.460;19.034;2023-04-09T06:12:12;101125.84;;;6.49;84.07
41800;BME280;27468;47.460;19.034;2023-04-09T06:14:38;101128.50;;;6.53;83.68
41800;BME280;27468;47.460;19.034;2023-04-09T06:17:03;101078.59;;;6.34;83.55
41800;BME280;27468;47.460;19.034;2023-04-09T06:19:29;101024.22;;;6.04;82.63
41800;BME280;27468;47.460;19.034;2023-04-09T06:21:55;101127.59;;;6.51;81.60
41800;BME280;27468;47.460;19.034;2023-04-09T06:24:21;101137.34;;;6.65;81.46
41800;BME280;27468;47.460;19.034;2023-04-09T06:26:46;101012.81;;;5.97;81.09
41800;BME280;27468;47.460;19.034;2023-04-09T06:29:12;101118.88;;;6.51;81.33
41800;BME280;27468;47.460;19.034;2023-04-09T06:31:37;101044.41;;;6.18;81.54
41800;BME280;27468;47.460;19.034;2023-04-09T06:34:02;101067.16;;;6.22;80.22
41800;BME280;27468;47.460;19.034;2023-04-09T06:36:28;101146.97;;;6.67;79.79
41800;BME280;27468;47.460;19.034;2023-04-09T06:38:54;101134.78;;;6.72;79.37
41800;BME280;27468;47.460;19.034;2023-04-09T06:41:21;101047.16;;;6.32;79.13
41800;BME280;27468;47.460;19.034;2023-04-09T06:43:47;101106.91;;;6.82;79.13
41800;BME280;27468;47.460;19.034;2023-04-09T06:46:12;101084.00;;;6.58;77.20
41800;BME280;27468;47.460;19.034;2023-04-09T06:48:41;101050.75;;;6.51;77.14
41800;BME280;27468;47.460;19.034;2023-04-09T06:51:09;101053.44;;;6.58;76.14
41800;BME280;27468;47.460;19.034;2023-04-09T06:53:35;101068.44;;;6.79;75.32
41800;BME280;27468;47.460;19.034;2023-04-09T06:56:00;101135.91;;;7.11;74.28
41800;BME280;27468;47.460;19.034;2023-04-09T06:58:26;101098.22;;;6.89;72.98
41800;BME280;27468;47.460;19.034;2023-04-09T07:00:51;101077.22;;;6.87;73.61
41800;BME280;27468;47.460;19.034;2023-04-09T07:03:17;101030.84;;;6.76;72.07
41800;BME280;27468;47.460;19.034;2023-04-09T07:05:42;101037.94;;;6.90;72.38
41800;BME280;27468;47.460;19.034;2023-04-09T07:08:07;101073.88;;;7.16;70.57
41800;BME280;27468;47.460;19.034;2023-04-09T07:10:33;101065.97;;;7.11;69.40
41800;BME280;27468;47.460;19.034;2023-04-09T07:12:58;101076.50;;;7.14;69.76
41800;BME280;27468;47.460;19.034;2023-04-09T07:15:24;101129.16;;;7.51;68.98
41800;BME280;27468;47.460;19.034;2023-04-09T07:17:49;101095.00;;;7.42;68.13
41800;BME280;27468;47.460;19.034;2023-04-09T07:20:15;101134.44;;;7.71;68.05
41800;BME280;27468;47.460;19.034;2023-04-09T07:22:40;101064.25;;;7.13;68.00
41800;BME280;27468;47.460;19.034;2023-04-09T07:25:06;101125.63;;;7.53;68.24
41800;BME280;27468;47.460;19.034;2023-04-09T07:27:31;101123.94;;;7.65;68.77
41800;BME280;27468;47.460;19.034;2023-04-09T07:29:58;101153.81;;;8.00;68.77
41800;BME280;27468;47.460;19.034;2023-04-09T07:32:24;101098.59;;;7.71;67.91
41800;BME280;27468;47.460;19.034;2023-04-09T07:34:51;101161.72;;;8.24;67.74
41800;BME280;27468;47.460;19.034;2023-04-09T07:37:17;101162.63;;;8.28;67.49
41800;BME280;27468;47.460;19.034;2023-04-09T07:39:43;101157.38;;;8.26;66.38
41800;BME280;27468;47.460;19.034;2023-04-09T07:42:08;101053.13;;;7.81;66.67
41800;BME280;27468;47.460;19.034;2023-04-09T07:44:35;101091.69;;;8.31;66.98
41800;BME280;27468;47.460;19.034;2023-04-09T07:47:05;101148.66;;;8.70;65.71
41800;BME280;27468;47.460;19.034;2023-04-09T07:49:31;101160.94;;;8.80;64.10
41800;BME280;27468;47.460;19.034;2023-04-09T07:51:58;101121.50;;;8.74;63.22
41800;BME280;27468;47.460;19.034;2023-04-09T07:54:23;101169.69;;;9.22;64.20
41800;BME280;27468;47.460;19.034;2023-04-09T07:56:49;101147.75;;;9.20;62.23
41800;BME280;27468;47.460;19.034;2023-04-09T07:59:15;101153.03;;;9.21;62.07
41800;BME280;27468;47.460;19.034;2023-04-09T08:01:41;101170.47;;;9.50;61.70
41800;BME280;27468;47.460;19.034;2023-04-09T08:04:06;101139.88;;;9.06;59.86
41800;BME280;27468;47.460;19.034;2023-04-09T08:06:32;101099.56;;;8.93;60.84
41800;BME280;27468;47.460;19.034;2023-04-09T08:08:57;101157.31;;;9.45;61.13
41800;BME280;27468;47.460;19.034;2023-04-09T08:11:23;101133.72;;;9.24;60.44
41800;BME280;27468;47.460;19.034;2023-04-09T08:13:53;101137.19;;;9.29;60.62
41800;BME280;27468;47.460;19.034;2023-04-09T08:16:19;101077.63;;;9.11;59.95
41800;BME280;27468;47.460;19.034;2023-04-09T08:18:45;101113.41;;;9.56;59.92
41800;BME280;27468;47.460;19.034;2023-04-09T08:21:11;101070.44;;;9.56;60.61
41800;BME280;27468;47.460;19.034;2023-04-09T08:23:37;101033.56;;;9.57;60.46
41800;BME280;27468;47.460;19.034;2023-04-09T08:26:02;101146.47;;;10.18;57.19
41800;BME280;27468;47.460;19.034;2023-04-09T08:28:28;101134.94;;;10.38;56.99
41800;BME280;27468;47.460;19.034;2023-04-09T08:30:53;101097.28;;;10.23;55.92
41800;BME280;27468;47.460;19.034;2023-04-09T08:33:19;101148.69;;;10.78;56.80
41800;BME280;27468;47.460;19.034;2023-04-09T08:35:44;101147.09;;;10.55;55.49
41800;BME280;27468;47.460;19.034;2023-04-09T08:38:09;101139.06;;;10.71;56.13
41800;BME280;27468;47.460;19.034;2023-04-09T08:40:35;101163.63;;;10.80;55.86
41800;BME280;27468;47.460;19.034;2023-04-09T08:43:04;101160.94;;;10.85;55.09
41800;BME280;27468;47.460;19.034;2023-04-09T08:45:30;101166.03;;;11.03;55.83
41800;BME280;27468;47.460;19.034;2023-04-09T08:47:56;101130.84;;;11.03;55.06
41800;BME280;27468;47.460;19.034;2023-04-09T08:50:25;101178.91;;;11.35;54.50
41800;BME280;27468;47.460;19.034;2023-04-09T08:52:52;101172.78;;;11.33;53.89
41800;BME280;27468;47.460;19.034;2023-04-09T08:55:18;101125.03;;;10.67;53.95
41800;BME280;27468;47.460;19.034;2023-04-09T08:57:43;101190.19;;;10.53;53.93
41800;BME280;27468;47.460;19.034;2023-04-09T09:00:09;101162.03;;;10.58;55.43
41800;BME280;27468;47.460;19.034;2023-04-09T09:02:35;101102.28;;;10.54;55.13
41800;BME280;27468;47.460;19.034;2023-04-09T09:05:01;101100.50;;;10.56;55.12
41800;BME280;27468;47.460;19.034;2023-04-09T09:07:27;101146.66;;;11.04;54.79
41800;BME280;27468;47.460;19.034;2023-04-09T09:09:58;101164.91;;;11.30;54.76
41800;BME280;27468;47.460;19.034;2023-04-09T09:12:33;101190.84;;;11.70;53.83
41800;BME280;27468;47.460;19.034;2023-04-09T09:14:59;101135.81;;;11.35;52.39
41800;BME280;27468;47.460;19.034;2023-04-09T09:17:25;101182.28;;;11.51;53.13
41800;BME280;27468;47.460;19.034;2023-04-09T09:19:50;101108.69;;;11.19;52.83
41800;BME280;27468;47.460;19.034;2023-04-09T09:22:16;101132.91;;;11.56;52.97
41800;BME280;27468;47.460;19.034;2023-04-09T09:24:48;101188.88;;;11.90;52.52
41800;BME280;27468;47.460;19.034;2023-04-09T09:27:32;101197.66;;;11.92;52.12
41800;BME280;27468;47.460;19.034;2023-04-09T09:30:01;101194.16;;;11.90;51.83
41800;BME280;27468;47.460;19.034;2023-04-09T09:32:26;101137.19;;;11.66;51.29
41800;BME280;27468;47.460;19.034;2023-04-09T09:35:02;101186.06;;;12.05;50.93
41800;BME280;27468;47.460;19.034;2023-04-09T09:37:29;101195.91;;;11.93;50.04
41800;BME280;27468;47.460;19.034;2023-04-09T09:39:55;101186.69;;;12.22;50.87
41800;BME280;27468;47.460;19.034;2023-04-09T09:42:21;101142.13;;;11.97;49.92
41800;BME280;27468;47.460;19.034;2023-04-09T09:44:47;101157.78;;;12.10;49.01
41800;BME280;27468;47.460;19.034;2023-04-09T09:47:13;101166.41;;;12.21;50.03
41800;BME280;27468;47.460;19.034;2023-04-09T09:49:39;101159.25;;;12.30;49.96
41800;BME280;27468;47.460;19.034;2023-04-09T09:52:09;101155.84;;;12.21;49.83
41800;BME280;27468;47.460;19.034;2023-04-09T09:54:40;101167.00;;;12.42;48.52
41800;BME280;27468;47.460;19.034;2023-04-09T09:57:10;101152.94;;;12.40;49.08
41800;BME280;27468;47.460;19.034;2023-04-09T09:59:41;101129.84;;;11.93;48.69
41800;BME280;27468;47.460;19.034;2023-04-09T10:02:17;101097.47;;;11.74;48.75
41800;BME280;27468;47.460;19.034;2023-04-09T10:04:43;101105.19;;;11.90;49.17
41800;BME280;27468;47.460;19.034;2023-04-09T10:07:09;101107.75;;;11.97;48.97
41800;BME280;27468;47.460;19.034;2023-04-09T10:09:37;101166.47;;;12.17;48.84
41800;BME280;27468;47.460;19.034;2023-04-09T10:12:06;101175.94;;;12.33;49.11
41800;BME280;27468;47.460;19.034;2023-04-09T10:14:34;101133.00;;;12.17;49.77
41800;BME280;27468;47.460;19.034;2023-04-09T10:17:00;101169.53;;;12.49;49.58
41800;BME280;27468;47.460;19.034;2023-04-09T10:19:28;101110.03;;;12.21;49.55
41800;BME280;27468;47.460;19.034;2023-04-09T10:22:05;101110.50;;;11.89;49.08
41800;BME280;27468;47.460;19.034;2023-04-09T10:24:34;101139.00;;;11.61;49.48
41800;BME280;27468;47.460;19.034;2023-04-09T10:27:14;101186.13;;;12.01;49.84
41800;BME280;27468;47.460;19.034;2023-04-09T10:29:49;101154.31;;;12.07;49.68
41800;BME280;27468;47.460;19.034;2023-04-09T10:32:22;101141.03;;;12.11;49.54
41800;BME280;27468;47.460;19.034;2023-04-09T10:34:51;101162.66;;;12.38;49.81
41800;BME280;27468;47.460;19.034;2023-04-09T10:37:26;101184.69;;;12.38;49.73
41800;BME280;27468;47.460;19.034;2023-04-09T10:39:53;101172.91;;;12.61;49.87
41800;BME280;27468;47.460;19.034;2023-04-09T10:42:23;101156.53;;;12.36;48.73
41800;BME280;27468;47.460;19.034;2023-04-09T10:45:10;101143.72;;;12.67;48.07
41800;BME280;27468;47.460;19.034;2023-04-09T10:47:40;101172.25;;;13.00;47.73
41800;BME280;27468;47.460;19.034;2023-04-09T10:50:20;101175.56;;;13.13;48.23
41800;BME280;27468;47.460;19.034;2023-04-09T10:52:53;101136.75;;;13.12;47.38
41800;BME280;27468;47.460;19.034;2023-04-09T10:55:35;101144.56;;;13.21;46.93
41800;BME280;27468;47.460;19.034;2023-04-09T10:58:05;101156.91;;;13.20;47.13
41800;BME280;27468;47.460;19.034;2023-04-09T11:00:36;101136.78;;;13.09;47.31
41800;BME280;27468;47.460;19.034;2023-04-09T11:05:35;101162.56;;;13.47;46.99
41800;BME280;27468;47.460;19.034;2023-04-09T11:08:13;101099.63;;;13.16;46.49
41800;BME280;27468;47.460;19.034;2023-04-09T11:10:44;101109.28;;;13.19;46.88
41800;BME280;27468;47.460;19.034;2023-04-09T11:13:11;101138.06;;;12.86;47.29
41800;BME280;27468;47.460;19.034;2023-04-09T11:15:37;101083.22;;;12.45;47.34
41800;BME280;27468;47.460;19.034;2023-04-09T11:18:03;101100.56;;;12.63;47.79
41800;BME280;27468;47.460;19.034;2023-04-09T11:20:32;101163.16;;;13.15;48.13
41800;BME280;27468;47.460;19.034;2023-04-09T11:22:58;101066.78;;;12.77;47.82
41800;BME280;27468;47.460;19.034;2023-04-09T11:25:27;101160.34;;;13.26;48.01
41800;BME280;27468;47.460;19.034;2023-04-09T11:27:53;101089.41;;;12.94;47.39
41800;BME280;27468;47.460;19.034;2023-04-09T11:30:19;101143.69;;;13.20;46.17
41800;BME280;27468;47.460;19.034;2023-04-09T11:32:46;101158.50;;;13.29;46.77
41800;BME280;27468;47.460;19.034;2023-04-09T11:35:14;101161.13;;;13.29;46.92
41800;BME280;27468;47.460;19.034;2023-04-09T11:37:41;101155.94;;;13.26;46.87
41800;BME280;27468;47.460;19.034;2023-04-09T11:40:14;101131.34;;;13.19;47.11
41800;BME280;27468;47.460;19.034;2023-04-09T11:42:41;101119.75;;;13.25;47.27
41800;BME280;27468;47.460;19.034;2023-04-09T11:45:07;101073.44;;;13.00;46.95
41800;BME280;27468;47.460;19.034;2023-04-09T11:47:34;101128.56;;;13.27;46.71
41800;BME280;27468;47.460;19.034;2023-04-09T11:49:59;101086.56;;;13.04;47.09
41800;BME280;27468;47.460;19.034;2023-04-09T11:52:26;101124.03;;;13.31;46.67
41800;BME280;27468;47.460;19.034;2023-04-09T11:54:52;101098.91;;;13.05;46.57
41800;BME280;27468;47.460;19.034;2023-04-09T11:57:17;101151.53;;;13.25;46.85
41800;BME280;27468;47.460;19.034;2023-04-09T11:59:43;101139.56;;;13.03;47.26
41800;BME280;27468;47.460;19.034;2023-04-09T12:02:09;101112.06;;;13.10;47.36
41800;BME280;27468;47.460;19.034;2023-04-09T12:04:35;101126.84;;;13.25;47.17
41800;BME280;27468;47.460;19.034;2023-04-09T12:07:00;101146.97;;;13.32;46.84
41800;BME280;27468;47.460;19.034;2023-04-09T12:09:26;101098.53;;;13.27;46.72
41800;BME280;27468;47.460;19.034;2023-04-09T12:11:51;101126.88;;;13.66;46.99
41800;BME280;27468;47.460;19.034;2023-04-09T12:14:18;101117.22;;;13.64;45.61
41800;BME280;27468;47.460;19.034;2023-04-09T12:16:49;101122.13;;;13.82;45.12
41800;BME280;27468;47.460;19.034;2023-04-09T12:19:15;101107.31;;;13.72;44.69
41800;BME280;27468;47.460;19.034;2023-04-09T12:21:58;101152.72;;;13.97;45.10
41800;BME280;27468;47.460;19.034;2023-04-09T12:24:24;101065.66;;;13.37;45.79
41800;BME280;27468;47.460;19.034;2023-04-09T12:26:51;101064.88;;;13.32;46.17
41800;BME280;27468;47.460;19.034;2023-04-09T12:29:18;101083.03;;;13.50;45.79
41800;BME280;27468;47.460;19.034;2023-04-09T12:31:44;101081.44;;;13.43;46.29
41800;BME280;27468;47.460;19.034;2023-04-09T12:34:10;101094.56;;;13.47;46.36
41800;BME280;27468;47.460;19.034;2023-04-09T12:36:38;101079.47;;;13.52;45.96
41800;BME280;27468;47.460;19.034;2023-04-09T12:39:04;101087.53;;;13.46;46.22
41800;BME280;27468;47.460;19.034;2023-04-09T12:41:30;101082.34;;;13.40;45.90
41800;BME280;27468;47.460;19.034;2023-04-09T12:43:55;101090.22;;;13.45;46.12
41800;BME280;27468;47.460;19.034;2023-04-09T12:46:21;101081.09;;;13.15;46.13
41800;BME280;27468;47.460;19.034;2023-04-09T12:48:46;101109.50;;;13.05;46.85
41800;BME280;27468;47.460;19.034;2023-04-09T12:51:12;101085.97;;;12.88;47.03
41800;BME280;27468;47.460;19.034;2023-04-09T12:53:38;101056.56;;;12.57;47.26
41800;BME280;27468;47.460;19.034;2023-04-09T12:56:04;101142.53;;;12.83;46.96